Troupsburg, New York
Current Conditions -  °F | °C
As of 10:56 AM on Friday 19 Dec 2014 (Local Time) from KELZ Reporting Station
Overcast Overcast  
Wind Chill: 11°   Ceiling: 900
Heat Index: 23°   Visibility: 10mi
Dew Point: 19°   Wind: 13mph
Humidity: 85%   Direction: 310°NW
Pressure: 30.09"   Gusts: NA
Location:  42.04°N, 77.55°W
Report Text: KELZ 191556Z AUTO 31011KT 10SM OVC009 M05/M07 A3009 RMK AO2 SLP219 T10501072
Loading
Personal Weather Stations






























Interactive Weather Map New forecast layout! Learn more

10-Day Weather Forecast

Advertisements
Track Severe Weather on mobile